Time;durP1;ratioP1;P1;durP2;ratioP2;P2;SDS_P1;SDS_P2;PMS_P1;PMS_P2;Temp;Humidity;BMP_temperature;BMP_pressure;BME280_temperature;BME280_humidity;BME280_pressure;Samples;Min_cycle;Max_cycle;Signal;HPM_P1;HPM_P2
2023/01/17 00:00:35;;;;;;;5.53;1.60;;;26.70;99.90;;;;;;5115099;28;20825;-88
2023/01/17 00:03:03;;;;;;;6.88;1.40;;;27.00;99.90;;;;;;5115243;28;20412;-89
2023/01/17 00:11:00;;;;;;;4.63;1.40;;;28.00;99.90;;;;;;5115131;28;20385;-88
2023/01/17 00:13:27;;;;;;;4.70;1.40;;;27.90;99.30;;;;;;5114765;28;20371;-88
2023/01/17 00:15:54;;;;;;;5.10;1.40;;;27.80;98.80;;;;;;5114790;28;20905;-87
2023/01/17 00:18:21;;;;;;;6.30;1.50;;;27.80;99.00;;;;;;5114707;28;20366;-87
2023/01/17 00:26:19;;;;;;;8.23;1.63;;;28.80;96.70;;;;;;5114507;28;20789;-86
2023/01/17 01:35:52;;;;;;;2.65;1.10;;;32.40;83.10;;;;;;5113095;28;20391;-86
2023/01/17 01:38:22;;;;;;;3.83;1.20;;;32.30;83.00;;;;;;5113753;28;20409;-87
2023/01/17 01:40:51;;;;;;;4.77;1.30;;;31.90;84.00;;;;;;5112878;28;20391;-87
2023/01/17 01:43:53;;;;;;;3.03;1.27;;;32.10;84.60;;;;;;5111991;28;20499;-88
2023/01/17 01:46:40;;;;;;;4.55;1.30;;;32.20;84.90;;;;;;5113686;28;20355;-87
2023/01/17 01:49:27;;;;;;;4.03;1.40;;;32.30;83.80;;;;;;5112806;28;20370;-86
2023/01/17 01:51:58;;;;;;;3.73;1.30;;;31.80;81.30;;;;;;5112776;28;20370;-87
2023/01/17 01:54:29;;;;;;;4.32;1.30;;;31.20;84.20;;;;;;5113111;28;20359;-88
2023/01/17 01:56:58;;;;;;;3.40;1.27;;;31.10;84.10;;;;;;5112812;28;20374;-88
2023/01/17 01:59:26;;;;;;;3.22;1.20;;;30.60;83.70;;;;;;5112631;28;20373;-87
2023/01/17 02:01:56;;;;;;;4.23;1.40;;;30.10;85.80;;;;;;5113002;28;20935;-88
2023/01/17 02:04:26;;;;;;;4.53;1.25;;;30.20;86.40;;;;;;5112929;28;20458;-88
2023/01/17 02:07:12;;;;;;;3.50;1.10;;;31.00;86.20;;;;;;5112590;28;20383;-88
2023/01/17 02:09:39;;;;;;;2.92;1.00;;;32.10;83.40;;;;;;5112645;28;20366;-88
2023/01/17 02:12:06;;;;;;;3.83;1.10;;;33.10;83.20;;;;;;5112668;28;20461;-89
2023/01/17 02:14:33;;;;;;;2.60;1.08;;;33.70;79.60;;;;;;5112839;28;20363;-87
2023/01/17 02:17:18;;;;;;;3.97;1.15;;;33.30;78.20;;;;;;5111712;28;20949;-87
2023/01/17 02:20:17;;;;;;;3.88;1.17;;;32.50;78.50;;;;;;5112406;28;20362;-87
2023/01/17 02:23:14;;;;;;;5.13;1.38;;;31.80;80.90;;;;;;5112398;28;20401;-88
2023/01/17 02:26:14;;;;;;;3.97;1.33;;;31.40;83.10;;;;;;5112430;28;20355;-87
2023/01/17 02:29:05;;;;;;;3.30;1.20;;;31.10;84.30;;;;;;5112642;28;20492;-87
2023/01/17 02:31:41;;;;;;;3.58;1.30;;;30.90;85.20;;;;;;5112955;28;20850;-86
2023/01/17 02:34:34;;;;;;;3.00;1.05;;;30.80;84.60;;;;;;5112799;28;20843;-86
2023/01/17 02:37:07;;;;;;;3.92;1.20;;;30.70;85.50;;;;;;5112596;28;20391;-87
2023/01/17 02:39:53;;;;;;;3.90;1.10;;;31.10;85.50;;;;;;5112440;28;20371;-86
2023/01/17 02:42:26;;;;;;;3.85;1.20;;;32.30;83.20;;;;;;5112240;28;20427;-85
2023/01/17 02:44:53;;;;;;;3.07;1.00;;;33.50;81.10;;;;;;5112015;28;20394;-86
2023/01/17 02:47:25;;;;;;;3.38;1.10;;;34.60;78.30;;;;;;5112168;27;20375;-88
2023/01/17 02:49:57;;;;;;;4.35;1.17;;;36.00;74.20;;;;;;5112141;28;20371;-87
2023/01/17 02:52:46;;;;;;;4.10;1.20;;;36.20;70.90;;;;;;5112726;28;20367;-80
2023/01/17 02:55:31;;;;;;;3.83;1.15;;;36.30;69.10;;;;;;5112713;28;20369;-81
2023/01/17 02:58:16;;;;;;;3.50;1.20;;;36.00;69.00;;;;;;5112058;28;20359;-80
2023/01/17 03:01:19;;;;;;;3.40;1.17;;;36.70;69.00;;;;;;5112153;28;20422;-81
2023/01/17 03:04:04;;;;;;;4.05;1.30;;;37.40;67.10;;;;;;5112348;28;20461;-80
2023/01/17 03:06:34;;;;;;;5.57;1.40;;;37.20;66.20;;;;;;5111976;28;20414;-80
2023/01/17 03:09:03;;;;;;;3.13;1.00;;;37.20;66.80;;;;;;5112058;28;20720;-80
2023/01/17 03:11:30;;;;;;;6.17;1.13;;;36.70;65.20;;;;;;5111789;28;20547;-81
2023/01/17 03:13:57;;;;;;;2.58;1.10;;;35.40;67.00;;;;;;5111974;28;20371;-79
2023/01/17 03:16:28;;;;;;;2.60;1.05;;;35.10;69.30;;;;;;5111872;28;20450;-80
2023/01/17 03:18:55;;;;;;;2.70;1.20;;;34.80;69.40;;;;;;5111745;28;20379;-80
2023/01/17 03:21:23;;;;;;;4.10;1.23;;;34.40;69.20;;;;;;5111806;28;20394;-80
2023/01/17 03:23:50;;;;;;;3.13;1.15;;;33.90;69.50;;;;;;5111809;28;20366;-81
2023/01/17 03:26:17;;;;;;;3.25;1.10;;;33.30;71.40;;;;;;5111735;28;20715;-81
2023/01/17 03:28:44;;;;;;;3.63;1.15;;;32.80;72.20;;;;;;5115441;28;20460;-81
2023/01/17 03:31:15;;;;;;;2.67;1.05;;;32.30;73.30;;;;;;5115343;28;20367;-80
2023/01/17 03:33:42;;;;;;;3.53;1.10;;;32.00;75.20;;;;;;5115362;28;20372;-79
2023/01/17 03:36:10;;;;;;;2.80;1.10;;;33.00;74.70;;;;;;5115304;28;20729;-79
2023/01/17 03:38:38;;;;;;;2.47;1.00;;;34.40;72.40;;;;;;5115276;28;20919;-80
2023/01/17 03:41:05;;;;;;;4.13;1.20;;;35.90;69.10;;;;;;5115561;28;20387;-79
2023/01/17 03:43:32;;;;;;;3.10;1.08;;;37.30;66.00;;;;;;5114999;28;20401;-80
2023/01/17 03:46:15;;;;;;;2.80;1.17;;;37.90;64.30;;;;;;5115246;27;20428;-79
2023/01/17 03:48:42;;;;;;;2.15;1.00;;;37.70;63.50;;;;;;5115498;28;20363;-81
2023/01/17 03:51:09;;;;;;;2.47;1.20;;;36.60;64.10;;;;;;5115121;28;20371;-81
2023/01/17 03:53:36;;;;;;;2.47;1.02;;;35.40;65.40;;;;;;5115120;28;20358;-81
2023/01/17 03:56:03;;;;;;;2.90;1.25;;;35.60;66.70;;;;;;5115303;28;20827;-82
2023/01/17 03:58:30;;;;;;;4.55;1.10;;;36.30;65.80;;;;;;5115011;28;20387;-82
2023/01/17 04:00:57;;;;;;;2.83;1.02;;;36.60;63.60;;;;;;5115381;28;20386;-82
2023/01/17 04:03:24;;;;;;;3.30;1.10;;;36.60;65.00;;;;;;5114822;28;20389;-81
2023/01/17 04:05:51;;;;;;;2.75;1.10;;;37.50;64.00;;;;;;5114812;27;20371;-81
2023/01/17 04:08:18;;;;;;;4.13;1.10;;;38.30;61.20;;;;;;5114774;28;20398;-82
2023/01/17 04:10:44;;;;;;;2.75;1.13;;;37.90;61.30;;;;;;5114943;28;20399;-83
2023/01/17 04:13:12;;;;;;;3.00;1.10;;;37.20;62.40;;;;;;5114644;28;20377;-82
2023/01/17 04:15:39;;;;;;;5.60;1.10;;;36.20;62.90;;;;;;5114839;28;20366;-82
2023/01/17 04:18:07;;;;;;;2.47;0.90;;;34.90;65.00;;;;;;5115123;28;20379;-82
2023/01/17 04:20:37;;;;;;;1.83;0.93;;;34.10;66.90;;;;;;5114577;28;20733;-82
2023/01/17 04:23:04;;;;;;;2.17;1.02;;;34.50;67.00;;;;;;5114434;28;20390;-80
2023/01/17 04:25:32;;;;;;;3.10;1.02;;;35.30;66.10;;;;;;5114372;28;20363;-86
2023/01/17 04:28:00;;;;;;;2.22;0.98;;;35.40;64.20;;;;;;5114446;28;20407;-89
2023/01/17 04:30:28;;;;;;;2.30;1.00;;;36.00;64.10;;;;;;5114448;28;20797;-86
2023/01/17 04:32:55;;;;;;;3.75;1.05;;;36.30;64.00;;;;;;5114429;28;20846;-86
2023/01/17 04:35:23;;;;;;;2.60;0.97;;;36.80;63.50;;;;;;5114315;28;20374;-83
2023/01/17 04:37:50;;;;;;;2.93;0.93;;;37.10;61.40;;;;;;5114736;28;20434;-87
2023/01/17 04:40:18;;;;;;;2.20;1.00;;;37.80;61.30;;;;;;5113843;28;20373;-84
2023/01/17 04:42:45;;;;;;;4.10;1.20;;;38.80;58.80;;;;;;5113971;28;20398;-82
2023/01/17 04:45:13;;;;;;;2.25;1.00;;;38.90;58.70;;;;;;5114098;28;20847;-82
2023/01/17 04:47:40;;;;;;;4.80;1.10;;;38.70;58.50;;;;;;5113936;28;20444;-85
2023/01/17 04:50:08;;;;;;;3.03;0.93;;;38.80;58.40;;;;;;5113947;28;20374;-83
2023/01/17 04:52:35;;;;;;;3.58;1.10;;;39.20;56.70;;;;;;5113966;28;20784;-84
2023/01/17 04:55:03;;;;;;;1.95;1.10;;;38.90;57.00;;;;;;5113879;28;20367;-81
2023/01/17 04:57:30;;;;;;;2.88;1.10;;;37.80;57.80;;;;;;5113815;28;20370;-83
2023/01/17 04:59:57;;;;;;;3.88;1.10;;;36.70;59.20;;;;;;5112399;28;20375;-82
2023/01/17 05:02:24;;;;;;;3.00;1.10;;;35.80;60.50;;;;;;5113678;28;20399;-82
2023/01/17 05:04:51;;;;;;;2.40;1.00;;;35.00;62.30;;;;;;5113984;28;20373;-83
2023/01/17 05:07:18;;;;;;;2.67;0.90;;;35.30;62.00;;;;;;5113687;28;20414;-83
2023/01/17 05:09:45;;;;;;;2.80;1.10;;;35.00;62.30;;;;;;5113686;27;20798;-84
2023/01/17 05:12:11;;;;;;;2.20;1.00;;;34.30;63.60;;;;;;5114646;28;20746;-83
2023/01/17 05:14:38;;;;;;;2.15;0.95;;;34.00;64.40;;;;;;5113843;27;20775;-81
2023/01/17 05:17:06;;;;;;;2.88;1.00;;;34.20;64.80;;;;;;5113469;28;20383;-82
2023/01/17 05:19:33;;;;;;;3.92;0.98;;;35.40;64.20;;;;;;5113360;28;20412;-83
2023/01/17 05:22:02;;;;;;;2.67;1.00;;;35.80;61.80;;;;;;5113619;28;20402;-83
2023/01/17 05:24:31;;;;;;;2.65;1.02;;;35.50;62.40;;;;;;5113314;28;20367;-83
2023/01/17 05:27:01;;;;;;;2.13;1.00;;;35.00;62.50;;;;;;5113641;28;20371;-83
2023/01/17 05:29:29;;;;;;;4.80;1.10;;;34.10;63.80;;;;;;5113344;28;20371;-81
2023/01/17 05:31:56;;;;;;;2.97;1.08;;;33.80;65.10;;;;;;5114302;28;20375;-82
2023/01/17 05:34:23;;;;;;;2.17;1.00;;;33.90;64.70;;;;;;5113299;28;20887;-83
2023/01/17 05:36:50;;;;;;;3.03;0.93;;;33.60;64.50;;;;;;5111974;28;20464;-83
2023/01/17 05:39:17;;;;;;;1.40;0.80;;;33.10;65.60;;;;;;5113287;28;20358;-81
2023/01/17 05:41:45;;;;;;;3.87;1.17;;;33.30;66.00;;;;;;5113656;28;20409;-81
2023/01/17 05:44:13;;;;;;;3.22;0.90;;;33.70;66.00;;;;;;5112691;28;20564;-81
2023/01/17 05:46:41;;;;;;;2.88;0.98;;;34.60;64.00;;;;;;5111871;28;20375;-82
2023/01/17 05:49:08;;;;;;;4.53;1.10;;;35.50;62.50;;;;;;5112915;28;20868;-83
2023/01/17 05:51:36;;;;;;;2.13;1.00;;;36.00;61.40;;;;;;5112814;28;20401;-82
2023/01/17 05:54:06;;;;;;;2.77;1.10;;;36.00;61.00;;;;;;5112801;28;20386;-81
2023/01/17 05:56:33;;;;;;;2.78;1.20;;;36.50;60.70;;;;;;5113076;28;20862;-82
2023/01/17 05:59:00;;;;;;;3.08;0.90;;;36.90;60.40;;;;;;5113282;28;20371;-82
2023/01/17 06:01:27;;;;;;;2.72;1.10;;;36.80;60.30;;;;;;5112660;28;20448;-83
2023/01/17 06:03:54;;;;;;;3.25;1.05;;;37.30;59.30;;;;;;5112739;28;20396;-84
2023/01/17 06:06:21;;;;;;;2.73;1.00;;;37.90;58.30;;;;;;5112740;28;20374;-81
2023/01/17 06:08:48;;;;;;;9.33;1.50;;;37.60;58.80;;;;;;5112683;28;20374;-81
2023/01/17 06:11:17;;;;;;;3.50;1.20;;;37.70;58.40;;;;;;5112532;28;20375;-82
2023/01/17 06:13:44;;;;;;;2.28;1.02;;;37.10;58.60;;;;;;5112404;28;20412;-81
2023/01/17 06:16:11;;;;;;;3.58;1.10;;;36.90;59.20;;;;;;5112477;28;20454;-80
2023/01/17 06:18:38;;;;;;;3.70;1.10;;;36.90;58.50;;;;;;5112373;28;20375;-81
2023/01/17 06:21:05;;;;;;;2.90;1.00;;;37.20;58.50;;;;;;5112791;28;20391;-79
2023/01/17 06:23:32;;;;;;;2.67;1.10;;;37.10;57.70;;;;;;5112458;28;20504;-81
2023/01/17 06:26:02;;;;;;;3.45;1.10;;;36.90;58.20;;;;;;5112478;28;20374;-80
2023/01/17 06:28:29;;;;;;;1.52;1.00;;;37.00;58.00;;;;;;5112435;28;20386;-81
2023/01/17 06:30:56;;;;;;;2.15;1.10;;;37.00;57.20;;;;;;5112430;28;20967;-80
2023/01/17 06:33:23;;;;;;;3.23;1.17;;;36.90;57.10;;;;;;5111066;28;20754;-80
2023/01/17 06:35:52;;;;;;;3.35;1.10;;;37.00;56.80;;;;;;5112333;28;20370;-81
2023/01/17 06:38:20;;;;;;;2.88;1.02;;;36.70;57.20;;;;;;5112407;28;20410;-82
2023/01/17 06:40:48;;;;;;;2.13;1.10;;;36.70;58.10;;;;;;5112861;28;20386;-80
2023/01/17 06:43:15;;;;;;;2.38;1.05;;;37.10;57.60;;;;;;5112173;28;20481;-82
2023/01/17 06:45:42;;;;;;;2.92;1.08;;;37.20;56.80;;;;;;5112394;28;20433;-86
2023/01/17 06:48:08;;;;;;;2.00;1.20;;;37.00;56.50;;;;;;5112571;28;20415;-86
2023/01/17 06:50:35;;;;;;;2.35;1.10;;;36.60;58.10;;;;;;5112369;28;20371;-80
2023/01/17 06:53:05;;;;;;;2.55;1.10;;;36.20;58.50;;;;;;5112221;28;20461;-82
2023/01/17 06:55:32;;;;;;;2.38;1.10;;;35.90;58.90;;;;;;5112079;28;20358;-81
2023/01/17 06:58:01;;;;;;;2.72;1.10;;;35.90;59.40;;;;;;5112027;28;20862;-83
2023/01/17 07:00:30;;;;;;;2.45;1.20;;;35.60;59.50;;;;;;5110826;28;20457;-80
2023/01/17 07:02:57;;;;;;;3.83;1.15;;;35.80;59.00;;;;;;5114251;28;20493;-83
2023/01/17 07:05:24;;;;;;;2.78;1.15;;;35.40;59.40;;;;;;5116043;28;20382;-81
2023/01/17 07:07:52;;;;;;;3.85;1.30;;;35.20;60.80;;;;;;5115891;28;20382;-81
2023/01/17 07:10:19;;;;;;;2.42;1.00;;;35.00;60.40;;;;;;5115969;28;20373;-81
2023/01/17 07:12:46;;;;;;;3.38;1.10;;;35.10;60.70;;;;;;5115709;28;20451;-82
2023/01/17 07:15:13;;;;;;;2.07;1.10;;;35.30;60.60;;;;;;5115749;28;20367;-84
2023/01/17 07:17:40;;;;;;;2.53;1.10;;;35.40;60.40;;;;;;5115538;28;20423;-82
2023/01/17 07:20:08;;;;;;;3.00;1.10;;;35.30;59.60;;;;;;5115805;28;20371;-82
2023/01/17 07:22:36;;;;;;;2.03;1.08;;;35.10;59.90;;;;;;5115802;28;20394;-82
2023/01/17 07:25:03;;;;;;;3.22;1.10;;;34.80;60.60;;;;;;5115575;28;20731;-81
2023/01/17 07:27:32;;;;;;;2.25;1.02;;;34.30;61.60;;;;;;5115984;27;20377;-80
2023/01/17 07:29:59;;;;;;;2.38;1.15;;;34.30;61.80;;;;;;5115479;28;20420;-83
2023/01/17 07:32:26;;;;;;;2.83;1.10;;;34.30;61.20;;;;;;5115639;28;20374;-81
2023/01/17 07:34:55;;;;;;;2.05;1.00;;;34.60;60.80;;;;;;5115372;28;20445;-80
2023/01/17 07:37:22;;;;;;;3.37;1.10;;;34.70;61.10;;;;;;5115472;28;20442;-80
2023/01/17 07:39:49;;;;;;;1.85;1.00;;;34.50;61.40;;;;;;5115354;28;20767;-84
2023/01/17 07:42:16;;;;;;;2.40;0.90;;;34.50;61.50;;;;;;5115336;28;20418;-82
2023/01/17 07:44:44;;;;;;;2.97;1.00;;;34.60;60.80;;;;;;5115129;28;20393;-81
2023/01/17 07:47:11;;;;;;;1.73;0.90;;;34.50;60.80;;;;;;5115124;28;20371;-81
2023/01/17 07:49:38;;;;;;;2.30;0.95;;;34.40;61.20;;;;;;5115295;28;20421;-81
2023/01/17 07:52:08;;;;;;;3.83;1.03;;;34.20;60.60;;;;;;5115711;28;20382;-82
2023/01/17 07:54:35;;;;;;;2.30;1.00;;;34.00;60.30;;;;;;5115572;27;20365;-82
2023/01/17 07:57:02;;;;;;;4.13;1.20;;;33.50;60.90;;;;;;5115071;28;20378;-80
2023/01/17 07:59:32;;;;;;;3.20;0.98;;;33.00;61.60;;;;;;5113596;28;20413;-84
2023/01/17 08:01:59;;;;;;;3.03;1.20;;;32.90;61.40;;;;;;5113541;28;20479;-83
2023/01/17 08:04:27;;;;;;;2.33;0.80;;;32.60;62.20;;;;;;5114958;28;20367;-85
2023/01/17 08:06:54;;;;;;;2.60;1.00;;;32.30;61.60;;;;;;5114876;28;20455;-83
2023/01/17 08:09:22;;;;;;;2.70;0.80;;;32.10;62.70;;;;;;5114676;28;20363;-82
2023/01/17 08:11:48;;;;;;;2.28;0.90;;;31.90;62.70;;;;;;5114489;28;20375;-82
2023/01/17 08:14:15;;;;;;;3.58;0.80;;;31.80;62.70;;;;;;5113316;27;20449;-83
2023/01/17 08:16:42;;;;;;;2.40;0.90;;;31.60;62.30;;;;;;5114608;28;20896;-82
2023/01/17 08:19:09;;;;;;;4.35;0.90;;;31.30;63.60;;;;;;5114351;28;20367;-82
2023/01/17 08:21:36;;;;;;;1.75;0.90;;;30.90;65.00;;;;;;5114811;28;20731;-90
2023/01/17 08:24:03;;;;;;;3.15;1.00;;;30.30;66.10;;;;;;5114472;27;20718;-81
2023/01/17 08:26:30;;;;;;;3.30;0.93;;;29.80;67.90;;;;;;5113182;28;20391;-82
2023/01/17 08:28:59;;;;;;;2.40;1.00;;;29.20;69.40;;;;;;5112367;28;20367;-85
2023/01/17 08:31:30;;;;;;;2.08;0.90;;;28.90;70.90;;;;;;5113000;28;20961;-84
2023/01/17 08:33:57;;;;;;;3.40;1.10;;;28.50;72.20;;;;;;5112880;28;20371;-79
2023/01/17 08:36:24;;;;;;;3.75;1.00;;;28.40;72.20;;;;;;5112925;28;20394;-82
2023/01/17 08:38:52;;;;;;;3.97;0.90;;;28.20;72.80;;;;;;5095784;28;20743;-83
2023/01/17 08:41:21;;;;;;;2.42;1.00;;;28.10;73.30;;;;;;5112308;28;20386;-80
2023/01/17 08:43:49;;;;;;;4.35;1.10;;;27.90;74.40;;;;;;5111701;28;20461;-78
2023/01/17 08:46:17;;;;;;;2.75;1.20;;;27.70;74.60;;;;;;5112140;28;20370;-84
2023/01/17 08:48:44;;;;;;;2.63;0.95;;;27.60;74.80;;;;;;5111795;28;20378;-78
2023/01/17 08:51:11;;;;;;;2.90;0.93;;;27.40;75.40;;;;;;5111829;28;20411;-77
2023/01/17 08:53:39;;;;;;;3.25;1.00;;;27.10;76.20;;;;;;5111909;28;20387;-78
2023/01/17 08:56:07;;;;;;;2.88;0.98;;;26.90;77.10;;;;;;5111800;28;20416;-78
2023/01/17 08:58:34;;;;;;;4.00;1.00;;;26.90;77.70;;;;;;5112006;28;20429;-83
2023/01/17 09:01:03;;;;;;;3.08;0.80;;;26.80;77.70;;;;;;5111627;28;20490;-88
2023/01/17 09:03:31;;;;;;;4.82;0.93;;;26.70;78.00;;;;;;5112610;28;20366;-80
2023/01/17 09:06:05;;;;;;;3.78;1.10;;;26.60;78.50;;;;;;5114072;28;20382;-84
2023/01/17 09:08:33;;;;;;;2.63;1.10;;;26.40;78.90;;;;;;5113750;28;20438;-85
2023/01/17 09:11:04;;;;;;;3.80;1.00;;;26.30;79.90;;;;;;5113952;28;20394;-86
2023/01/17 09:13:31;;;;;;;2.65;1.10;;;26.10;80.10;;;;;;5113719;28;20842;-83
2023/01/17 09:15:58;;;;;;;3.05;1.00;;;26.00;80.70;;;;;;5113448;28;20375;-84
2023/01/17 09:18:26;;;;;;;3.53;0.90;;;25.90;80.70;;;;;;5113864;28;20394;-83
2023/01/17 09:20:54;;;;;;;3.80;1.00;;;25.70;81.10;;;;;;5113398;28;20461;-80
2023/01/17 09:23:29;;;;;;;2.92;1.00;;;25.60;81.80;;;;;;5113210;28;20367;-82
2023/01/17 09:25:58;;;;;;;3.45;1.10;;;25.50;82.70;;;;;;5112710;28;20370;-81
2023/01/17 09:28:26;;;;;;;3.65;0.93;;;25.40;83.20;;;;;;5113178;28;20453;-80
2023/01/17 09:30:54;;;;;;;2.07;0.80;;;25.30;84.40;;;;;;5113076;28;20373;-82
2023/01/17 09:33:24;;;;;;;2.70;0.90;;;25.30;84.70;;;;;;5113140;28;20371;-81
2023/01/17 09:35:51;;;;;;;2.83;1.00;;;25.20;85.20;;;;;;5113138;28;20442;-81
2023/01/17 09:38:20;;;;;;;3.13;0.95;;;25.20;85.60;;;;;;5113052;28;20447;-82
2023/01/17 09:40:48;;;;;;;4.22;1.10;;;25.10;85.90;;;;;;5113069;28;20872;-81
2023/01/17 09:43:37;;;;;;;4.22;1.08;;;25.00;86.70;;;;;;5113002;28;20399;-80
2023/01/17 09:46:09;;;;;;;4.88;1.00;;;25.00;87.20;;;;;;5113288;28;20381;-80
2023/01/17 09:48:38;;;;;;;4.60;1.00;;;24.90;87.90;;;;;;5113356;28;20362;-80
2023/01/17 09:51:25;;;;;;;2.58;0.98;;;24.90;88.10;;;;;;5112878;28;20440;-81
2023/01/17 09:53:53;;;;;;;2.33;0.93;;;24.80;88.90;;;;;;5113150;28;20397;-80
2023/01/17 09:56:36;;;;;;;9.32;1.10;;;24.80;89.20;;;;;;5113488;28;20367;-81
2023/01/17 09:59:26;;;;;;;4.20;0.88;;;24.60;89.90;;;;;;5113208;28;20420;-82
2023/01/17 10:02:19;;;;;;;3.75;1.08;;;24.60;90.20;;;;;;5112647;28;20439;-81
2023/01/17 10:04:56;;;;;;;3.63;0.93;;;24.50;90.50;;;;;;5113475;28;20355;-83
2023/01/17 10:07:23;;;;;;;3.47;0.90;;;24.50;90.70;;;;;;5113463;28;20374;-81
2023/01/17 10:10:10;;;;;;;5.13;1.00;;;24.50;90.90;;;;;;5112941;28;20455;-80
2023/01/17 10:12:46;;;;;;;2.97;0.98;;;24.50;91.10;;;;;;5112208;28;20367;-81
2023/01/17 10:15:22;;;;;;;4.78;0.90;;;24.40;91.70;;;;;;5113132;28;20390;-81
2023/01/17 10:18:23;;;;;;;4.25;1.00;;;24.40;91.80;;;;;;5112811;28;20368;-81
2023/01/17 10:21:16;;;;;;;2.05;0.75;;;24.50;92.00;;;;;;5112614;28;20727;-81
2023/01/17 10:23:43;;;;;;;3.22;0.80;;;24.50;92.10;;;;;;5112448;28;20371;-81
2023/01/17 10:26:20;;;;;;;3.47;0.90;;;24.50;92.40;;;;;;5112767;28;20449;-80
2023/01/17 10:28:53;;;;;;;2.50;0.95;;;24.60;92.50;;;;;;5112481;28;20878;-81
2023/01/17 10:31:24;;;;;;;2.70;1.02;;;24.50;92.60;;;;;;5113171;28;20366;-82
2023/01/17 10:33:56;;;;;;;13.43;1.40;;;24.50;93.00;;;;;;5112737;28;20438;-82
2023/01/17 10:36:39;;;;;;;4.18;0.95;;;24.50;93.10;;;;;;5112818;28;20359;-83
2023/01/17 10:39:19;;;;;;;3.13;1.00;;;24.50;93.50;;;;;;5116767;28;20446;-83
2023/01/17 10:41:58;;;;;;;3.75;0.85;;;24.40;93.90;;;;;;5117250;28;20382;-81
2023/01/17 10:44:43;;;;;;;4.03;0.90;;;24.30;94.10;;;;;;5116208;28;20890;-82
2023/01/17 10:47:10;;;;;;;4.40;0.90;;;24.20;94.60;;;;;;5116301;28;20367;-80
2023/01/17 10:49:41;;;;;;;4.15;1.00;;;24.10;95.00;;;;;;5116599;28;20371;-81
2023/01/17 10:52:45;;;;;;;3.10;0.87;;;24.00;95.40;;;;;;5116238;28;20478;-80
2023/01/17 10:55:45;;;;;;;3.45;0.90;;;24.00;96.00;;;;;;5116126;27;20877;-80
2023/01/17 10:58:13;;;;;;;3.33;1.10;;;24.10;96.40;;;;;;5116294;28;20402;-81
2023/01/17 11:00:48;;;;;;;2.97;0.90;;;24.10;96.70;;;;;;5116172;27;20367;-81
2023/01/17 11:03:19;;;;;;;4.05;0.93;;;24.20;96.90;;;;;;5116556;28;20458;-81
2023/01/17 11:06:16;;;;;;;6.43;1.10;;;24.20;97.20;;;;;;5116122;28;20412;-81
2023/01/17 11:09:10;;;;;;;2.67;1.00;;;24.30;97.20;;;;;;5116200;28;20358;-81
2023/01/17 11:11:48;;;;;;;5.32;1.00;;;24.40;97.20;;;;;;5114836;27;20382;-82
2023/01/17 11:14:25;;;;;;;3.85;0.95;;;24.30;97.10;;;;;;5116103;28;20370;-81
2023/01/17 11:17:05;;;;;;;4.40;1.25;;;24.30;97.40;;;;;;5115781;28;20362;-81
2023/01/17 11:19:35;;;;;;;6.00;1.02;;;24.30;97.50;;;;;;5116476;28;20386;-82
2023/01/17 11:22:08;;;;;;;3.50;1.00;;;24.30;97.70;;;;;;5115659;27;20395;-81
2023/01/17 11:24:41;;;;;;;4.85;1.13;;;24.10;97.80;;;;;;5115547;28;20432;-81
2023/01/17 11:27:28;;;;;;;2.63;0.90;;;24.10;98.10;;;;;;5115897;28;20768;-81
2023/01/17 11:30:14;;;;;;;3.33;1.10;;;23.90;98.50;;;;;;5115578;28;20381;-81
2023/01/17 11:32:53;;;;;;;3.47;1.15;;;23.80;98.80;;;;;;5115481;28;20824;-82
2023/01/17 11:35:24;;;;;;;5.65;1.20;;;23.80;99.20;;;;;;5115414;28;20748;-82
2023/01/17 11:38:13;;;;;;;3.45;1.10;;;23.70;99.60;;;;;;5115319;28;20379;-82
2023/01/17 11:40:44;;;;;;;4.55;1.17;;;23.60;99.90;;;;;;5115485;28;20375;-81
2023/01/17 11:43:19;;;;;;;4.40;1.02;;;23.60;99.90;;;;;;5115095;28;20747;-81
2023/01/17 11:46:07;;;;;;;4.00;1.10;;;23.50;99.90;;;;;;5115234;28;20363;-82
2023/01/17 11:48:37;;;;;;;3.60;1.10;;;23.40;99.90;;;;;;5052675;28;20383;-81
2023/01/17 11:51:17;;;;;;;4.07;1.00;;;23.30;99.90;;;;;;5052694;28;20384;-81
2023/01/17 11:53:48;;;;;;;4.78;0.93;;;23.20;99.90;;;;;;5052590;28;20375;-83
2023/01/17 11:56:31;;;;;;;3.50;1.02;;;23.10;99.90;;;;;;5035716;28;20701;-82
2023/01/17 11:59:32;;;;;;;4.88;1.17;;;23.10;99.90;;;;;;5049691;28;20380;-82
2023/01/17 12:02:30;;;;;;;2.95;0.95;;;23.10;99.90;;;;;;5052557;28;20404;-81
2023/01/17 12:05:09;;;;;;;3.40;1.00;;;23.00;99.90;;;;;;5052250;28;20918;-82
2023/01/17 12:07:49;;;;;;;2.97;1.00;;;22.90;99.90;;;;;;5052760;28;20380;-81
2023/01/17 12:10:18;;;;;;;3.40;1.00;;;22.90;99.90;;;;;;5035484;28;20380;-80
2023/01/17 12:15:59;;;;;;;3.50;1.00;;;22.80;99.90;;;;;;5052599;28;20521;-80
2023/01/17 12:18:43;;;;;;;3.47;0.95;;;22.70;99.90;;;;;;5052459;28;20862;-82
2023/01/17 12:21:23;;;;;;;5.32;1.17;;;22.70;99.90;;;;;;5051778;28;20842;-80
2023/01/17 12:24:14;;;;;;;3.00;1.00;;;22.60;99.90;;;;;;5035245;28;20388;-80
2023/01/17 12:27:04;;;;;;;3.83;0.90;;;22.50;99.90;;;;;;5109550;28;20363;-81
2023/01/17 12:29:49;;;;;;;2.63;1.00;;;22.50;99.90;;;;;;5113935;28;20367;-80
2023/01/17 12:32:33;;;;;;;4.90;1.00;;;22.50;99.90;;;;;;5114737;28;20362;-81
2023/01/17 12:35:18;;;;;;;3.63;1.10;;;22.40;99.90;;;;;;5113036;28;20436;-82
2023/01/17 12:37:54;;;;;;;3.27;0.90;;;22.40;99.90;;;;;;5096163;28;20371;-81
2023/01/17 12:40:48;;;;;;;3.50;1.20;;;22.30;99.90;;;;;;5114283;28;20359;-81
2023/01/17 12:43:35;;;;;;;3.70;1.10;;;22.20;99.90;;;;;;5113821;28;20402;-81
2023/01/17 12:46:33;;;;;;;3.75;1.10;;;22.10;99.90;;;;;;5114713;28;20375;-81
2023/01/17 12:49:25;;;;;;;5.20;1.13;;;22.10;99.90;;;;;;5112752;28;20846;-84
2023/01/17 12:51:58;;;;;;;4.75;1.20;;;22.00;99.90;;;;;;5113986;28;20374;-82
2023/01/17 12:54:37;;;;;;;4.17;1.00;;;22.00;99.90;;;;;;5113971;28;20497;-83
2023/01/17 12:57:18;;;;;;;2.55;0.90;;;21.90;99.90;;;;;;5113880;28;20437;-83
2023/01/17 13:00:28;;;;;;;3.83;1.10;;;22.00;99.90;;;;;;5113176;28;20432;-83
2023/01/17 13:03:14;;;;;;;3.50;1.00;;;21.80;99.90;;;;;;5070778;28;20402;-82
2023/01/17 13:05:47;;;;;;;3.00;1.07;;;21.80;99.90;;;;;;5070913;28;20378;-83
2023/01/17 13:08:52;;;;;;;3.03;1.13;;;21.80;99.90;;;;;;5071267;28;20457;-82
2023/01/17 13:11:32;;;;;;;4.00;1.17;;;21.70;99.90;;;;;;5011337;28;20467;-82
2023/01/17 13:14:00;;;;;;;2.90;1.00;;;21.70;99.90;;;;;;5011332;28;20383;-82
2023/01/17 13:16:33;;;;;;;2.97;1.00;;;21.70;99.90;;;;;;5011039;28;20375;-82
2023/01/17 13:19:08;;;;;;;2.80;1.10;;;21.60;99.90;;;;;;5011138;28;20387;-80
2023/01/17 13:21:35;;;;;;;2.25;1.00;;;21.60;99.90;;;;;;5010909;28;20411;-82
2023/01/17 13:24:14;;;;;;;2.93;1.00;;;21.60;99.90;;;;;;5010991;28;20371;-80
2023/01/17 13:26:55;;;;;;;3.72;1.10;;;21.50;99.90;;;;;;5011631;28;20751;-82
2023/01/17 13:29:35;;;;;;;4.13;1.07;;;21.60;99.90;;;;;;5011368;28;20378;-81
2023/01/17 13:32:11;;;;;;;3.95;1.10;;;21.50;99.90;;;;;;5011341;28;20391;-81
2023/01/17 13:35:00;;;;;;;4.63;1.00;;;21.60;99.90;;;;;;5010882;28;20466;-82
2023/01/17 13:37:43;;;;;;;5.83;1.13;;;21.60;99.90;;;;;;5015837;28;20395;-82
2023/01/17 13:41:04;;;;;;;4.35;1.08;;;21.50;99.90;;;;;;5072050;28;20465;-81
2023/01/17 13:43:40;;;;;;;8.25;1.35;;;21.50;99.90;;;;;;4991155;28;20863;-82
2023/01/17 13:46:07;;;;;;;3.58;1.25;;;21.50;99.90;;;;;;5025851;28;20484;-82
2023/01/17 13:48:39;;;;;;;5.38;1.05;;;21.50;99.90;;;;;;5050192;28;20391;-81
2023/01/17 13:51:12;;;;;;;11.98;1.30;;;21.40;99.90;;;;;;5050240;28;20376;-81
2023/01/17 13:53:39;;;;;;;6.57;1.23;;;21.40;99.90;;;;;;5050107;28;20383;-81
2023/01/17 13:56:26;;;;;;;4.93;1.05;;;21.30;99.90;;;;;;5050437;28;20368;-81
2023/01/17 13:58:56;;;;;;;4.35;1.30;;;21.30;99.90;;;;;;5050328;28;20375;-81
2023/01/17 14:01:23;;;;;;;6.20;1.30;;;21.30;99.90;;;;;;5050045;28;20420;-81
2023/01/17 14:03:53;;;;;;;2.20;1.08;;;21.20;99.90;;;;;;5049946;28;20380;-81
2023/01/17 14:06:40;;;;;;;3.83;1.05;;;21.20;99.90;;;;;;5049841;28;20454;-81
2023/01/17 14:09:21;;;;;;;3.70;1.10;;;21.20;99.90;;;;;;5049931;28;20737;-82
2023/01/17 14:12:14;;;;;;;6.25;1.20;;;21.10;99.90;;;;;;5049191;28;20376;-82
2023/01/17 14:14:41;;;;;;;4.95;1.02;;;21.10;99.90;;;;;;5049981;28;20391;-83
2023/01/17 14:17:21;;;;;;;5.20;1.15;;;21.00;99.90;;;;;;5080775;28;20382;-83
2023/01/17 14:20:02;;;;;;;3.75;1.10;;;21.00;99.90;;;;;;5112867;28;20471;-80
2023/01/17 14:22:37;;;;;;;3.58;1.13;;;20.90;99.90;;;;;;5112439;28;20777;-81
2023/01/17 14:25:10;;;;;;;4.15;1.13;;;20.90;99.90;;;;;;5112853;28;20719;-81
2023/01/17 14:27:49;;;;;;;3.75;1.17;;;20.80;99.90;;;;;;5112492;28;20931;-81
2023/01/17 14:30:31;;;;;;;4.82;1.25;;;20.80;99.90;;;;;;5112477;28;20715;-81
2023/01/17 14:33:15;;;;;;;3.58;1.30;;;20.70;99.90;;;;;;5112396;28;20390;-82
2023/01/17 14:35:54;;;;;;;6.38;1.30;;;20.60;99.90;;;;;;5112418;28;20451;-81
2023/01/17 14:38:23;;;;;;;4.57;1.30;;;20.60;99.90;;;;;;5112414;28;20868;-80
2023/01/17 14:40:56;;;;;;;4.50;1.30;;;20.60;99.90;;;;;;5112237;28;20392;-81